sensor_id;sensor_type;location;lat;lon;timestamp;P1;durP1;ratioP1;P2;durP2;ratioP2
23720;SDS011;42950;52.134;5.578;2023-06-19T00:01:45;9.60;;;6.53;;
23720;SDS011;42950;52.134;5.578;2023-06-19T00:04:11;8.32;;;6.80;;
23720;SDS011;42950;52.134;5.578;2023-06-19T00:06:36;7.82;;;7.03;;
23720;SDS011;42950;52.134;5.578;2023-06-19T00:09:03;7.72;;;7.03;;
23720;SDS011;42950;52.134;5.578;2023-06-19T00:11:29;7.13;;;6.43;;
23720;SDS011;42950;52.134;5.578;2023-06-19T00:13:54;9.00;;;7.25;;
23720;SDS011;42950;52.134;5.578;2023-06-19T00:16:20;9.25;;;6.78;;
23720;SDS011;42950;52.134;5.578;2023-06-19T00:18:47;7.68;;;6.93;;
23720;SDS011;42950;52.134;5.578;2023-06-19T00:21:13;8.57;;;6.60;;
23720;SDS011;42950;52.134;5.578;2023-06-19T00:23:39;7.22;;;6.63;;
23720;SDS011;42950;52.134;5.578;2023-06-19T00:26:04;8.05;;;7.22;;
23720;SDS011;42950;52.134;5.578;2023-06-19T00:28:31;7.55;;;6.90;;
23720;SDS011;42950;52.134;5.578;2023-06-19T00:30:58;10.48;;;7.47;;
23720;SDS011;42950;52.134;5.578;2023-06-19T00:33:24;8.45;;;6.55;;
23720;SDS011;42950;52.134;5.578;2023-06-19T00:35:50;8.85;;;7.30;;
23720;SDS011;42950;52.134;5.578;2023-06-19T00:38:16;10.88;;;6.78;;
23720;SDS011;42950;52.134;5.578;2023-06-19T00:40:41;9.40;;;7.45;;
23720;SDS011;42950;52.134;5.578;2023-06-19T00:43:07;9.00;;;7.43;;
23720;SDS011;42950;52.134;5.578;2023-06-19T00:45:33;7.95;;;7.15;;
23720;SDS011;42950;52.134;5.578;2023-06-19T00:47:59;7.13;;;6.43;;
23720;SDS011;42950;52.134;5.578;2023-06-19T00:50:27;8.63;;;7.60;;
23720;SDS011;42950;52.134;5.578;2023-06-19T00:52:55;9.75;;;7.53;;
23720;SDS011;42950;52.134;5.578;2023-06-19T00:55:21;8.10;;;7.25;;
23720;SDS011;42950;52.134;5.578;2023-06-19T00:57:47;9.43;;;7.78;;
23720;SDS011;42950;52.134;5.578;2023-06-19T01:00:15;8.27;;;7.05;;
23720;SDS011;42950;52.134;5.578;2023-06-19T01:02:41;8.20;;;7.22;;
23720;SDS011;42950;52.134;5.578;2023-06-19T01:05:07;7.93;;;6.88;;
23720;SDS011;42950;52.134;5.578;2023-06-19T01:10:21;7.78;;;6.97;;
23720;SDS011;42950;52.134;5.578;2023-06-19T01:13:01;8.35;;;6.85;;
23720;SDS011;42950;52.134;5.578;2023-06-19T01:15:32;8.65;;;7.22;;
23720;SDS011;42950;52.134;5.578;2023-06-19T01:17:58;7.78;;;7.07;;
23720;SDS011;42950;52.134;5.578;2023-06-19T01:20:25;9.90;;;7.85;;
23720;SDS011;42950;52.134;5.578;2023-06-19T01:22:52;9.70;;;8.40;;
23720;SDS011;42950;52.134;5.578;2023-06-19T01:25:22;8.95;;;8.05;;
23720;SDS011;42950;52.134;5.578;2023-06-19T01:27:49;9.38;;;7.93;;
23720;SDS011;42950;52.134;5.578;2023-06-19T01:30:15;13.18;;;7.75;;
23720;SDS011;42950;52.134;5.578;2023-06-19T01:35:27;8.20;;;7.40;;
23720;SDS011;42950;52.134;5.578;2023-06-19T01:37:54;8.63;;;7.07;;
23720;SDS011;42950;52.134;5.578;2023-06-19T01:40:21;7.03;;;6.35;;
23720;SDS011;42950;52.134;5.578;2023-06-19T01:42:51;5.82;;;5.32;;
23720;SDS011;42950;52.134;5.578;2023-06-19T01:45:18;5.28;;;4.78;;
23720;SDS011;42950;52.134;5.578;2023-06-19T01:47:44;6.82;;;4.82;;
23720;SDS011;42950;52.134;5.578;2023-06-19T01:50:10;5.28;;;4.70;;
23720;SDS011;42950;52.134;5.578;2023-06-19T01:52:37;4.63;;;4.25;;
23720;SDS011;42950;52.134;5.578;2023-06-19T01:55:04;5.70;;;4.43;;
23720;SDS011;42950;52.134;5.578;2023-06-19T01:57:31;4.75;;;4.32;;
23720;SDS011;42950;52.134;5.578;2023-06-19T01:59:57;4.45;;;4.03;;
23720;SDS011;42950;52.134;5.578;2023-06-19T02:02:22;7.57;;;4.22;;
23720;SDS011;42950;52.134;5.578;2023-06-19T02:04:48;5.10;;;4.25;;
23720;SDS011;42950;52.134;5.578;2023-06-19T02:07:15;7.97;;;4.40;;
23720;SDS011;42950;52.134;5.578;2023-06-19T02:09:41;5.32;;;3.95;;
23720;SDS011;42950;52.134;5.578;2023-06-19T02:12:07;9.88;;;4.10;;
23720;SDS011;42950;52.134;5.578;2023-06-19T02:14:34;6.25;;;4.45;;
23720;SDS011;42950;52.134;5.578;2023-06-19T02:17:00;4.28;;;3.97;;
23720;SDS011;42950;52.134;5.578;2023-06-19T02:19:25;4.20;;;3.80;;
23720;SDS011;42950;52.134;5.578;2023-06-19T02:21:52;4.30;;;3.03;;
23720;SDS011;42950;52.134;5.578;2023-06-19T02:24:18;3.72;;;2.90;;
23720;SDS011;42950;52.134;5.578;2023-06-19T02:26:45;2.70;;;2.50;;
23720;SDS011;42950;52.134;5.578;2023-06-19T02:29:11;4.60;;;2.97;;
23720;SDS011;42950;52.134;5.578;2023-06-19T02:31:36;4.63;;;3.25;;
23720;SDS011;42950;52.134;5.578;2023-06-19T02:34:02;3.72;;;3.10;;
23720;SDS011;42950;52.134;5.578;2023-06-19T02:36:29;4.45;;;3.30;;
23720;SDS011;42950;52.134;5.578;2023-06-19T02:38:55;3.90;;;3.03;;
23720;SDS011;42950;52.134;5.578;2023-06-19T02:41:21;4.13;;;3.40;;
23720;SDS011;42950;52.134;5.578;2023-06-19T02:43:46;3.60;;;3.30;;
23720;SDS011;42950;52.134;5.578;2023-06-19T02:46:12;4.75;;;3.75;;
23720;SDS011;42950;52.134;5.578;2023-06-19T02:48:39;5.30;;;3.30;;
23720;SDS011;42950;52.134;5.578;2023-06-19T02:51:04;3.60;;;3.30;;
23720;SDS011;42950;52.134;5.578;2023-06-19T02:53:30;3.83;;;3.53;;
23720;SDS011;42950;52.134;5.578;2023-06-19T02:55:55;3.65;;;3.35;;
23720;SDS011;42950;52.134;5.578;2023-06-19T02:58:21;4.20;;;3.47;;
23720;SDS011;42950;52.134;5.578;2023-06-19T03:00:47;3.85;;;3.50;;
23720;SDS011;42950;52.134;5.578;2023-06-19T03:03:13;5.25;;;3.25;;
23720;SDS011;42950;52.134;5.578;2023-06-19T03:05:39;3.60;;;3.30;;
23720;SDS011;42950;52.134;5.578;2023-06-19T03:08:04;3.28;;;2.97;;
23720;SDS011;42950;52.134;5.578;2023-06-19T03:10:31;5.13;;;3.40;;
23720;SDS011;42950;52.134;5.578;2023-06-19T03:12:56;4.20;;;3.60;;
23720;SDS011;42950;52.134;5.578;2023-06-19T03:15:23;3.95;;;3.58;;
23720;SDS011;42950;52.134;5.578;2023-06-19T03:17:52;3.67;;;3.28;;
23720;SDS011;42950;52.134;5.578;2023-06-19T03:20:19;3.75;;;2.85;;
23720;SDS011;42950;52.134;5.578;2023-06-19T03:22:45;4.43;;;3.00;;
23720;SDS011;42950;52.134;5.578;2023-06-19T03:25:11;3.05;;;2.85;;
23720;SDS011;42950;52.134;5.578;2023-06-19T03:27:38;3.40;;;3.10;;
23720;SDS011;42950;52.134;5.578;2023-06-19T03:30:04;3.90;;;3.15;;
23720;SDS011;42950;52.134;5.578;2023-06-19T03:32:35;3.72;;;3.15;;
23720;SDS011;42950;52.134;5.578;2023-06-19T03:35:01;3.45;;;3.00;;
23720;SDS011;42950;52.134;5.578;2023-06-19T03:37:28;4.82;;;3.63;;
23720;SDS011;42950;52.134;5.578;2023-06-19T03:39:55;3.35;;;3.10;;
23720;SDS011;42950;52.134;5.578;2023-06-19T03:42:22;3.70;;;3.20;;
23720;SDS011;42950;52.134;5.578;2023-06-19T03:44:47;3.45;;;3.15;;
23720;SDS011;42950;52.134;5.578;2023-06-19T03:47:13;3.15;;;2.85;;
23720;SDS011;42950;52.134;5.578;2023-06-19T03:49:39;3.70;;;3.35;;
23720;SDS011;42950;52.134;5.578;2023-06-19T03:52:04;4.95;;;3.88;;
23720;SDS011;42950;52.134;5.578;2023-06-19T03:54:30;4.00;;;3.70;;
23720;SDS011;42950;52.134;5.578;2023-06-19T03:56:56;3.80;;;3.47;;
23720;SDS011;42950;52.134;5.578;2023-06-19T03:59:21;4.10;;;3.67;;
23720;SDS011;42950;52.134;5.578;2023-06-19T04:01:47;4.07;;;3.67;;
23720;SDS011;42950;52.134;5.578;2023-06-19T04:04:13;4.20;;;3.80;;
23720;SDS011;42950;52.134;5.578;2023-06-19T04:06:38;5.22;;;4.70;;
23720;SDS011;42950;52.134;5.578;2023-06-19T04:09:04;4.72;;;4.32;;
23720;SDS011;42950;52.134;5.578;2023-06-19T04:11:29;5.03;;;4.53;;
23720;SDS011;42950;52.134;5.578;2023-06-19T04:13:55;6.72;;;5.35;;
23720;SDS011;42950;52.134;5.578;2023-06-19T04:16:21;7.30;;;4.80;;
23720;SDS011;42950;52.134;5.578;2023-06-19T04:18:46;5.97;;;5.30;;
23720;SDS011;42950;52.134;5.578;2023-06-19T04:21:13;6.28;;;5.55;;
23720;SDS011;42950;52.134;5.578;2023-06-19T04:23:40;7.80;;;5.95;;
23720;SDS011;42950;52.134;5.578;2023-06-19T04:26:05;6.40;;;5.90;;
23720;SDS011;42950;52.134;5.578;2023-06-19T04:28:32;7.35;;;6.68;;
23720;SDS011;42950;52.134;5.578;2023-06-19T04:30:58;9.30;;;7.03;;
23720;SDS011;42950;52.134;5.578;2023-06-19T04:33:27;7.35;;;6.65;;
23720;SDS011;42950;52.134;5.578;2023-06-19T04:35:54;7.55;;;6.93;;
23720;SDS011;42950;52.134;5.578;2023-06-19T04:38:19;8.20;;;7.35;;
23720;SDS011;42950;52.134;5.578;2023-06-19T04:40:48;8.13;;;7.32;;
23720;SDS011;42950;52.134;5.578;2023-06-19T04:43:16;8.98;;;7.30;;
23720;SDS011;42950;52.134;5.578;2023-06-19T04:45:42;8.52;;;7.38;;
23720;SDS011;42950;52.134;5.578;2023-06-19T04:48:10;8.50;;;7.60;;
23720;SDS011;42950;52.134;5.578;2023-06-19T04:50:36;8.35;;;7.50;;
23720;SDS011;42950;52.134;5.578;2023-06-19T04:53:02;8.98;;;7.90;;
23720;SDS011;42950;52.134;5.578;2023-06-19T04:55:28;9.13;;;7.95;;
23720;SDS011;42950;52.134;5.578;2023-06-19T04:57:54;9.32;;;7.78;;
23720;SDS011;42950;52.134;5.578;2023-06-19T05:00:20;9.18;;;8.00;;
23720;SDS011;42950;52.134;5.578;2023-06-19T05:02:47;9.02;;;8.13;;
23720;SDS011;42950;52.134;5.578;2023-06-19T05:05:13;10.68;;;9.60;;
23720;SDS011;42950;52.134;5.578;2023-06-19T05:07:39;11.32;;;9.80;;
23720;SDS011;42950;52.134;5.578;2023-06-19T05:10:06;11.70;;;10.50;;
23720;SDS011;42950;52.134;5.578;2023-06-19T05:12:33;14.93;;;10.50;;
23720;SDS011;42950;52.134;5.578;2023-06-19T05:15:00;13.38;;;11.90;;
23720;SDS011;42950;52.134;5.578;2023-06-19T05:17:26;12.80;;;11.45;;
23720;SDS011;42950;52.134;5.578;2023-06-19T05:19:52;11.98;;;10.55;;
23720;SDS011;42950;52.134;5.578;2023-06-19T05:22:18;13.40;;;12.00;;
23720;SDS011;42950;52.134;5.578;2023-06-19T05:24:44;16.10;;;10.90;;
23720;SDS011;42950;52.134;5.578;2023-06-19T05:27:10;12.48;;;11.27;;
23720;SDS011;42950;52.134;5.578;2023-06-19T05:29:35;13.88;;;10.77;;
23720;SDS011;42950;52.134;5.578;2023-06-19T05:32:01;11.63;;;10.43;;
23720;SDS011;42950;52.134;5.578;2023-06-19T05:34:27;13.07;;;10.98;;
23720;SDS011;42950;52.134;5.578;2023-06-19T05:36:53;13.85;;;11.30;;
23720;SDS011;42950;52.134;5.578;2023-06-19T05:39:18;13.68;;;11.45;;
23720;SDS011;42950;52.134;5.578;2023-06-19T05:41:44;12.88;;;11.57;;
23720;SDS011;42950;52.134;5.578;2023-06-19T05:44:11;13.18;;;11.77;;
23720;SDS011;42950;52.134;5.578;2023-06-19T05:46:41;13.18;;;11.77;;
23720;SDS011;42950;52.134;5.578;2023-06-19T05:49:07;13.88;;;12.63;;
23720;SDS011;42950;52.134;5.578;2023-06-19T05:51:32;12.88;;;11.57;;
23720;SDS011;42950;52.134;5.578;2023-06-19T05:53:59;13.52;;;12.32;;
23720;SDS011;42950;52.134;5.578;2023-06-19T05:56:28;13.48;;;12.10;;
23720;SDS011;42950;52.134;5.578;2023-06-19T05:58:55;13.52;;;12.13;;
23720;SDS011;42950;52.134;5.578;2023-06-19T06:01:21;13.23;;;11.90;;
23720;SDS011;42950;52.134;5.578;2023-06-19T06:03:46;13.95;;;11.63;;
23720;SDS011;42950;52.134;5.578;2023-06-19T06:06:12;12.65;;;11.45;;
23720;SDS011;42950;52.134;5.578;2023-06-19T06:08:37;12.43;;;11.13;;
23720;SDS011;42950;52.134;5.578;2023-06-19T06:11:03;13.18;;;11.45;;
23720;SDS011;42950;52.134;5.578;2023-06-19T06:13:29;14.25;;;11.00;;
23720;SDS011;42950;52.134;5.578;2023-06-19T06:15:54;12.52;;;11.07;;
23720;SDS011;42950;52.134;5.578;2023-06-19T06:18:20;12.05;;;10.70;;
23720;SDS011;42950;52.134;5.578;2023-06-19T06:20:46;12.18;;;10.80;;
23720;SDS011;42950;52.134;5.578;2023-06-19T06:23:11;12.55;;;11.25;;
23720;SDS011;42950;52.134;5.578;2023-06-19T06:25:37;13.93;;;11.02;;
23720;SDS011;42950;52.134;5.578;2023-06-19T06:28:02;15.50;;;11.48;;
23720;SDS011;42950;52.134;5.578;2023-06-19T06:30:28;11.63;;;10.40;;
23720;SDS011;42950;52.134;5.578;2023-06-19T06:32:54;14.10;;;12.07;;
23720;SDS011;42950;52.134;5.578;2023-06-19T06:35:20;15.85;;;12.95;;
23720;SDS011;42950;52.134;5.578;2023-06-19T06:37:46;13.57;;;12.27;;
23720;SDS011;42950;52.134;5.578;2023-06-19T06:40:14;14.35;;;12.68;;
23720;SDS011;42950;52.134;5.578;2023-06-19T06:42:40;13.82;;;12.38;;
23720;SDS011;42950;52.134;5.578;2023-06-19T06:45:06;14.57;;;13.15;;
23720;SDS011;42950;52.134;5.578;2023-06-19T06:47:32;15.70;;;12.40;;
23720;SDS011;42950;52.134;5.578;2023-06-19T06:49:59;14.30;;;11.88;;
23720;SDS011;42950;52.134;5.578;2023-06-19T06:52:25;15.20;;;11.52;;
23720;SDS011;42950;52.134;5.578;2023-06-19T06:54:51;13.40;;;10.23;;
23720;SDS011;42950;52.134;5.578;2023-06-19T06:57:16;11.68;;;9.35;;
23720;SDS011;42950;52.134;5.578;2023-06-19T06:59:42;9.85;;;8.90;;
23720;SDS011;42950;52.134;5.578;2023-06-19T07:02:07;11.20;;;9.10;;
23720;SDS011;42950;52.134;5.578;2023-06-19T07:04:33;8.73;;;7.95;;
23720;SDS011;42950;52.134;5.578;2023-06-19T07:06:59;8.02;;;7.18;;
23720;SDS011;42950;52.134;5.578;2023-06-19T07:09:24;8.13;;;6.90;;
23720;SDS011;42950;52.134;5.578;2023-06-19T07:11:50;11.50;;;9.27;;
23720;SDS011;42950;52.134;5.578;2023-06-19T07:14:16;14.85;;;8.80;;
23720;SDS011;42950;52.134;5.578;2023-06-19T07:16:43;9.23;;;8.32;;
23720;SDS011;42950;52.134;5.578;2023-06-19T07:19:12;12.43;;;9.00;;
23720;SDS011;42950;52.134;5.578;2023-06-19T07:21:38;12.13;;;8.98;;
23720;SDS011;42950;52.134;5.578;2023-06-19T07:24:05;11.05;;;8.63;;
23720;SDS011;42950;52.134;5.578;2023-06-19T07:26:31;9.63;;;8.63;;
23720;SDS011;42950;52.134;5.578;2023-06-19T07:28:56;10.40;;;9.40;;
23720;SDS011;42950;52.134;5.578;2023-06-19T07:31:22;9.60;;;8.60;;
23720;SDS011;42950;52.134;5.578;2023-06-19T07:33:47;19.13;;;10.52;;
23720;SDS011;42950;52.134;5.578;2023-06-19T07:36:13;12.52;;;11.15;;
23720;SDS011;42950;52.134;5.578;2023-06-19T07:38:41;15.15;;;12.10;;
23720;SDS011;42950;52.134;5.578;2023-06-19T07:41:07;13.40;;;11.07;;
23720;SDS011;42950;52.134;5.578;2023-06-19T07:43:34;16.15;;;12.65;;
23720;SDS011;42950;52.134;5.578;2023-06-19T07:46:00;14.52;;;12.90;;
23720;SDS011;42950;52.134;5.578;2023-06-19T07:48:26;13.98;;;12.57;;
23720;SDS011;42950;52.134;5.578;2023-06-19T07:50:53;16.17;;;13.45;;
23720;SDS011;42950;52.134;5.578;2023-06-19T07:53:18;18.08;;;12.52;;
23720;SDS011;42950;52.134;5.578;2023-06-19T07:55:44;16.40;;;13.18;;
23720;SDS011;42950;52.134;5.578;2023-06-19T07:58:09;16.58;;;13.77;;
23720;SDS011;42950;52.134;5.578;2023-06-19T08:00:35;15.77;;;13.43;;
23720;SDS011;42950;52.134;5.578;2023-06-19T08:03:01;18.38;;;13.20;;
23720;SDS011;42950;52.134;5.578;2023-06-19T08:05:26;15.90;;;14.27;;
23720;SDS011;42950;52.134;5.578;2023-06-19T08:07:52;17.63;;;14.88;;
23720;SDS011;42950;52.134;5.578;2023-06-19T08:10:19;19.60;;;16.55;;
23720;SDS011;42950;52.134;5.578;2023-06-19T08:12:46;20.02;;;17.42;;
23720;SDS011;42950;52.134;5.578;2023-06-19T08:15:13;20.13;;;17.17;;
23720;SDS011;42950;52.134;5.578;2023-06-19T08:17:43;18.00;;;15.90;;
23720;SDS011;42950;52.134;5.578;2023-06-19T08:20:09;22.52;;;17.27;;
23720;SDS011;42950;52.134;5.578;2023-06-19T08:22:35;20.35;;;17.08;;
23720;SDS011;42950;52.134;5.578;2023-06-19T08:25:01;19.80;;;16.27;;
23720;SDS011;42950;52.134;5.578;2023-06-19T08:27:27;22.90;;;17.25;;
23720;SDS011;42950;52.134;5.578;2023-06-19T08:29:52;18.65;;;16.75;;
23720;SDS011;42950;52.134;5.578;2023-06-19T08:32:18;22.63;;;18.08;;
23720;SDS011;42950;52.134;5.578;2023-06-19T08:34:44;19.73;;;17.00;;
23720;SDS011;42950;52.134;5.578;2023-06-19T08:37:09;19.35;;;16.83;;
23720;SDS011;42950;52.134;5.578;2023-06-19T08:39:35;20.27;;;18.02;;
23720;SDS011;42950;52.134;5.578;2023-06-19T08:42:03;20.15;;;17.52;;
23720;SDS011;42950;52.134;5.578;2023-06-19T08:44:30;18.73;;;16.77;;
23720;SDS011;42950;52.134;5.578;2023-06-19T08:46:57;20.95;;;16.85;;
23720;SDS011;42950;52.134;5.578;2023-06-19T08:49:23;19.23;;;17.20;;
23720;SDS011;42950;52.134;5.578;2023-06-19T08:51:48;20.13;;;17.92;;
23720;SDS011;42950;52.134;5.578;2023-06-19T08:54:14;20.02;;;16.75;;
23720;SDS011;42950;52.134;5.578;2023-06-19T08:56:40;18.77;;;15.88;;
23720;SDS011;42950;52.134;5.578;2023-06-19T08:59:09;23.08;;;16.73;;
23720;SDS011;42950;52.134;5.578;2023-06-19T09:01:36;18.48;;;14.85;;
23720;SDS011;42950;52.134;5.578;2023-06-19T09:04:12;20.60;;;17.50;;
23720;SDS011;42950;52.134;5.578;2023-06-19T09:06:46;19.25;;;16.60;;
23720;SDS011;42950;52.134;5.578;2023-06-19T09:09:13;22.27;;;16.23;;
23720;SDS011;42950;52.134;5.578;2023-06-19T09:11:40;17.95;;;16.10;;
23720;SDS011;42950;52.134;5.578;2023-06-19T09:14:08;19.67;;;15.52;;
23720;SDS011;42950;52.134;5.578;2023-06-19T09:16:38;17.98;;;15.88;;
23720;SDS011;42950;52.134;5.578;2023-06-19T09:19:05;17.13;;;15.38;;
23720;SDS011;42950;52.134;5.578;2023-06-19T09:21:31;16.92;;;15.10;;
23720;SDS011;42950;52.134;5.578;2023-06-19T09:24:06;17.95;;;16.05;;
23720;SDS011;42950;52.134;5.578;2023-06-19T09:26:33;20.33;;;17.42;;
23720;SDS011;42950;52.134;5.578;2023-06-19T09:29:09;20.13;;;17.92;;
23720;SDS011;42950;52.134;5.578;2023-06-19T09:31:38;23.45;;;19.85;;
23720;SDS011;42950;52.134;5.578;2023-06-19T09:34:06;19.33;;;17.33;;
23720;SDS011;42950;52.134;5.578;2023-06-19T09:36:32;19.35;;;17.33;;
23720;SDS011;42950;52.134;5.578;2023-06-19T09:38:59;19.27;;;17.23;;
23720;SDS011;42950;52.134;5.578;2023-06-19T09:41:26;27.40;;;18.95;;
23720;SDS011;42950;52.134;5.578;2023-06-19T09:43:54;22.58;;;20.35;;
23720;SDS011;42950;52.134;5.578;2023-06-19T09:46:26;21.98;;;19.02;;
23720;SDS011;42950;52.134;5.578;2023-06-19T09:48:54;22.75;;;18.10;;
23720;SDS011;42950;52.134;5.578;2023-06-19T09:51:26;19.25;;;17.23;;
23720;SDS011;42950;52.134;5.578;2023-06-19T09:53:56;18.27;;;15.88;;
23720;SDS011;42950;52.134;5.578;2023-06-19T09:56:23;20.33;;;17.95;;
23720;SDS011;42950;52.134;5.578;2023-06-19T09:58:51;19.77;;;16.63;;
23720;SDS011;42950;52.134;5.578;2023-06-19T10:01:19;22.55;;;18.70;;
23720;SDS011;42950;52.134;5.578;2023-06-19T10:03:45;20.83;;;17.42;;
23720;SDS011;42950;52.134;5.578;2023-06-19T10:06:15;21.30;;;17.90;;
23720;SDS011;42950;52.134;5.578;2023-06-19T10:08:42;18.73;;;16.73;;
23720;SDS011;42950;52.134;5.578;2023-06-19T10:11:09;19.25;;;16.40;;
23720;SDS011;42950;52.134;5.578;2023-06-19T10:13:36;19.70;;;17.70;;
23720;SDS011;42950;52.134;5.578;2023-06-19T10:16:06;22.73;;;18.20;;
23720;SDS011;42950;52.134;5.578;2023-06-19T10:18:33;19.63;;;17.60;;
23720;SDS011;42950;52.134;5.578;2023-06-19T10:21:17;20.27;;;18.15;;
23720;SDS011;42950;52.134;5.578;2023-06-19T10:23:53;21.55;;;17.20;;
23720;SDS011;42950;52.134;5.578;2023-06-19T10:26:20;17.88;;;14.70;;
23720;SDS011;42950;52.134;5.578;2023-06-19T10:28:55;18.65;;;15.10;;
23720;SDS011;42950;52.134;5.578;2023-06-19T10:31:21;16.15;;;14.45;;
23720;SDS011;42950;52.134;5.578;2023-06-19T10:33:46;17.27;;;15.48;;
23720;SDS011;42950;52.134;5.578;2023-06-19T10:36:16;18.20;;;16.40;;
23720;SDS011;42950;52.134;5.578;2023-06-19T10:38:46;18.88;;;15.75;;
23720;SDS011;42950;52.134;5.578;2023-06-19T10:41:19;18.65;;;16.52;;
23720;SDS011;42950;52.134;5.578;2023-06-19T10:43:55;17.58;;;14.55;;
23720;SDS011;42950;52.134;5.578;2023-06-19T10:46:22;15.25;;;13.32;;
23720;SDS011;42950;52.134;5.578;2023-06-19T10:48:50;16.70;;;13.27;;
23720;SDS011;42950;52.134;5.578;2023-06-19T10:51:19;14.32;;;12.93;;
23720;SDS011;42950;52.134;5.578;2023-06-19T10:53:45;14.65;;;11.63;;
23720;SDS011;42950;52.134;5.578;2023-06-19T10:56:11;15.15;;;12.43;;
23720;SDS011;42950;52.134;5.578;2023-06-19T10:58:37;16.20;;;14.45;;
23720;SDS011;42950;52.134;5.578;2023-06-19T11:01:02;15.95;;;13.38;;
23720;SDS011;42950;52.134;5.578;2023-06-19T11:03:28;14.65;;;13.00;;
23720;SDS011;42950;52.134;5.578;2023-06-19T11:05:54;15.05;;;13.00;;
23720;SDS011;42950;52.134;5.578;2023-06-19T11:08:20;18.17;;;14.30;;
23720;SDS011;42950;52.134;5.578;2023-06-19T11:10:47;15.02;;;13.50;;
23720;SDS011;42950;52.134;5.578;2023-06-19T11:13:14;15.95;;;14.30;;
23720;SDS011;42950;52.134;5.578;2023-06-19T11:15:40;17.65;;;14.95;;
23720;SDS011;42950;52.134;5.578;2023-06-19T11:18:06;15.77;;;14.13;;
23720;SDS011;42950;52.134;5.578;2023-06-19T11:20:42;13.35;;;11.93;;
23720;SDS011;42950;52.134;5.578;2023-06-19T11:23:12;15.93;;;14.30;;
23720;SDS011;42950;52.134;5.578;2023-06-19T11:25:39;15.75;;;14.05;;
23720;SDS011;42950;52.134;5.578;2023-06-19T11:28:15;15.23;;;13.73;;
23720;SDS011;42950;52.134;5.578;2023-06-19T11:30:49;15.38;;;12.60;;
23720;SDS011;42950;52.134;5.578;2023-06-19T11:33:22;14.65;;;12.52;;
23720;SDS011;42950;52.134;5.578;2023-06-19T11:35:48;14.50;;;13.05;;
23720;SDS011;42950;52.134;5.578;2023-06-19T11:38:19;14.63;;;12.43;;
23720;SDS011;42950;52.134;5.578;2023-06-19T11:40:45;14.93;;;12.18;;
23720;SDS011;42950;52.134;5.578;2023-06-19T11:43:11;13.98;;;12.55;;
23720;SDS011;42950;52.134;5.578;2023-06-19T11:45:48;14.45;;;11.95;;
23720;SDS011;42950;52.134;5.578;2023-06-19T11:48:20;11.60;;;10.40;;
23720;SDS011;42950;52.134;5.578;2023-06-19T11:50:47;12.35;;;10.75;;
23720;SDS011;42950;52.134;5.578;2023-06-19T11:53:12;11.98;;;10.68;;
23720;SDS011;42950;52.134;5.578;2023-06-19T11:55:38;11.02;;;9.30;;
23720;SDS011;42950;52.134;5.578;2023-06-19T11:58:04;12.02;;;10.80;;
23720;SDS011;42950;52.134;5.578;2023-06-19T12:00:29;12.30;;;10.18;;
23720;SDS011;42950;52.134;5.578;2023-06-19T12:02:55;12.32;;;11.02;;
23720;SDS011;42950;52.134;5.578;2023-06-19T12:05:22;11.57;;;10.38;;
23720;SDS011;42950;52.134;5.578;2023-06-19T12:07:47;14.43;;;11.05;;
23720;SDS011;42950;52.134;5.578;2023-06-19T12:10:13;11.88;;;10.68;;
23720;SDS011;42950;52.134;5.578;2023-06-19T12:12:39;10.80;;;9.70;;
23720;SDS011;42950;52.134;5.578;2023-06-19T12:15:05;12.00;;;10.77;;
23720;SDS011;42950;52.134;5.578;2023-06-19T12:17:31;13.45;;;10.90;;
23720;SDS011;42950;52.134;5.578;2023-06-19T12:19:57;10.73;;;9.27;;
23720;SDS011;42950;52.134;5.578;2023-06-19T12:22:23;12.38;;;11.07;;
23720;SDS011;42950;52.134;5.578;2023-06-19T12:24:49;12.82;;;9.75;;
23720;SDS011;42950;52.134;5.578;2023-06-19T12:27:15;12.15;;;9.45;;
23720;SDS011;42950;52.134;5.578;2023-06-19T12:29:41;11.55;;;10.10;;
23720;SDS011;42950;52.134;5.578;2023-06-19T12:32:06;9.35;;;8.25;;
23720;SDS011;42950;52.134;5.578;2023-06-19T12:34:32;9.63;;;8.48;;
23720;SDS011;42950;52.134;5.578;2023-06-19T12:36:58;11.18;;;9.30;;
23720;SDS011;42950;52.134;5.578;2023-06-19T12:39:23;11.68;;;8.90;;
23720;SDS011;42950;52.134;5.578;2023-06-19T12:41:49;10.65;;;8.10;;
23720;SDS011;42950;52.134;5.578;2023-06-19T12:44:15;10.02;;;9.02;;
23720;SDS011;42950;52.134;5.578;2023-06-19T12:46:41;12.32;;;10.38;;
23720;SDS011;42950;52.134;5.578;2023-06-19T12:49:07;11.52;;;8.98;;
23720;SDS011;42950;52.134;5.578;2023-06-19T12:51:33;10.48;;;9.43;;
23720;SDS011;42950;52.134;5.578;2023-06-19T12:53:59;12.57;;;8.85;;
23720;SDS011;42950;52.134;5.578;2023-06-19T12:56:24;10.80;;;9.70;;
23720;SDS011;42950;52.134;5.578;2023-06-19T12:58:50;11.63;;;10.52;;
23720;SDS011;42950;52.134;5.578;2023-06-19T13:01:16;10.65;;;9.55;;
23720;SDS011;42950;52.134;5.578;2023-06-19T13:03:42;12.90;;;9.32;;
23720;SDS011;42950;52.134;5.578;2023-06-19T13:06:07;11.45;;;9.75;;
23720;SDS011;42950;52.134;5.578;2023-06-19T13:08:33;10.45;;;8.23;;
23720;SDS011;42950;52.134;5.578;2023-06-19T13:10:58;10.18;;;7.85;;
23720;SDS011;42950;52.134;5.578;2023-06-19T13:13:24;8.65;;;7.60;;
23720;SDS011;42950;52.134;5.578;2023-06-19T13:15:49;8.50;;;7.63;;
23720;SDS011;42950;52.134;5.578;2023-06-19T13:18:15;8.68;;;7.82;;
23720;SDS011;42950;52.134;5.578;2023-06-19T13:20:41;8.25;;;7.45;;
23720;SDS011;42950;52.134;5.578;2023-06-19T13:23:06;10.02;;;7.72;;
23720;SDS011;42950;52.134;5.578;2023-06-19T13:25:32;8.45;;;7.25;;
23720;SDS011;42950;52.134;5.578;2023-06-19T13:27:58;8.82;;;7.93;;
23720;SDS011;42950;52.134;5.578;2023-06-19T13:30:24;8.50;;;7.45;;
23720;SDS011;42950;52.134;5.578;2023-06-19T13:32:49;9.43;;;8.55;;
23720;SDS011;42950;52.134;5.578;2023-06-19T13:35:15;9.02;;;7.85;;
23720;SDS011;42950;52.134;5.578;2023-06-19T13:37:40;9.60;;;7.38;;
23720;SDS011;42950;52.134;5.578;2023-06-19T13:40:06;9.10;;;7.72;;
23720;SDS011;42950;52.134;5.578;2023-06-19T13:42:32;8.98;;;8.05;;
23720;SDS011;42950;52.134;5.578;2023-06-19T13:45:00;8.00;;;7.20;;
23720;SDS011;42950;52.134;5.578;2023-06-19T13:47:26;8.50;;;6.95;;
23720;SDS011;42950;52.134;5.578;2023-06-19T13:49:52;7.05;;;6.45;;
23720;SDS011;42950;52.134;5.578;2023-06-19T13:52:18;7.70;;;6.95;;
23720;SDS011;42950;52.134;5.578;2023-06-19T13:54:44;10.75;;;7.50;;
23720;SDS011;42950;52.134;5.578;2023-06-19T13:57:09;10.57;;;6.93;;
23720;SDS011;42950;52.134;5.578;2023-06-19T13:59:35;8.95;;;7.50;;
23720;SDS011;42950;52.134;5.578;2023-06-19T14:02:01;9.45;;;7.25;;
23720;SDS011;42950;52.134;5.578;2023-06-19T14:04:26;8.18;;;6.80;;
23720;SDS011;42950;52.134;5.578;2023-06-19T14:06:52;8.43;;;7.05;;
23720;SDS011;42950;52.134;5.578;2023-06-19T14:09:19;8.25;;;7.43;;
23720;SDS011;42950;52.134;5.578;2023-06-19T14:11:45;8.80;;;7.10;;
23720;SDS011;42950;52.134;5.578;2023-06-19T14:14:11;7.28;;;6.57;;
23720;SDS011;42950;52.134;5.578;2023-06-19T14:16:37;7.55;;;5.50;;
23720;SDS011;42950;52.134;5.578;2023-06-19T14:19:02;8.63;;;7.72;;
23720;SDS011;42950;52.134;5.578;2023-06-19T14:21:28;10.23;;;6.80;;
23720;SDS011;42950;52.134;5.578;2023-06-19T14:23:54;8.82;;;6.32;;
23720;SDS011;42950;52.134;5.578;2023-06-19T14:26:19;8.80;;;6.97;;
23720;SDS011;42950;52.134;5.578;2023-06-19T14:28:46;7.18;;;6.10;;
23720;SDS011;42950;52.134;5.578;2023-06-19T14:31:11;6.40;;;5.75;;
23720;SDS011;42950;52.134;5.578;2023-06-19T14:33:37;8.10;;;6.40;;
23720;SDS011;42950;52.134;5.578;2023-06-19T14:36:03;7.15;;;6.05;;